Weather at Brownwood Regional Airport

Public forecast

Using degrees Fahrenheit for public forecast. Weather courtesy of forecast.io.

Current aviation weather report (METAR) for Brownwood Regional Airport

2024/05/29 18:35 (retrieved 18 minutes ago)

KBWD 291835Z AUTO 13006KT 090V150 9SM SCT040 29/19 A3005 RMK AO1

Closest aviation forecast (TAF) to Brownwood Regional Airport

Closest forecast is Curtis Field, 41.4 nm (76.7 km) SSW.

2024/05/29 18:22 (retrieved 31 minutes ago)

TAF KBBD 291720Z 2918/3018 11008KT P6SM SCT050 FM300800 15008KT P6SM BKN025 FM301500 18012G18KT P6SM SCT040